Detmold, Texas
Current Conditions -  °F | °C
As of 11:55 PM on Tuesday 21 Oct 2014 (Local Time) from KGRK Reporting Station
Broken Clouds Broken Clouds  
Wind Chill: 70°   Ceiling: 20000
Heat Index: 70°   Visibility: 7mi
Dew Point: 54°   Wind: 7mph
Humidity: 56%   Direction: 100°E
Pressure: 30.06"   Gusts: NA
Location:  30.5951°N, 97.1399°W
Report Text: KGRK 220455Z 10006KT 7SM BKN200 21/12 A3006 RMK SLP179
Loading
Personal Weather Stations






























Interactive Weather Map
Tropical Storm Tracking
New forecast layout! Learn more

10-Day Weather Forecast

Advertisements
Track Severe Weather on mobile